<?xml version="1.0" encoding="UTF-8" standalone="no" ?><gpx xmlns="http://www.topografix.com/GPX/1/1" xmlns:gpxx="http://www.garmin.com/xmlschemas/GpxExtensions/v3" xmlns:wptx1="http://www.garmin.com/xmlschemas/WaypointExtension/v1" xmlns:gpxtpx="http://www.garmin.com/xmlschemas/TrackPointExtension/v1" creator="Dakota 20" version="1.1" xmlns:xsi="http://www.w3.org/2001/XMLSchema-instance" xsi:schemaLocation="http://www.topografix.com/GPX/1/1 http://www.topografix.com/GPX/1/1/gpx.xsd http://www.garmin.com/xmlschemas/GpxExtensions/v3 http://www8.garmin.com/xmlschemas/GpxExtensionsv3.xsd http://www.garmin.com/xmlschemas/WaypointExtension/v1 http://www8.garmin.com/xmlschemas/WaypointExtensionv1.xsd http://www.garmin.com/xmlschemas/TrackPointExtension/v1 http://www.garmin.com/xmlschemas/TrackPointExtensionv1.xsd"><metadata><link href="http://www.garmin.com"><text>Garmin International</text></link><time>2012-02-01T15:04:46Z</time></metadata><trk><name>Current Track: 01 FEB 2012 10:00</name><extensions><gpxx:TrackExtension><gpxx:DisplayColor>Black</gpxx:DisplayColor></gpxx:TrackExtension></extensions><trkseg><trkpt lat="52.0032464806" lon="-2.2257776745"><ele>47.72</ele><time>2012-02-01T10:00:08Z</time></trkpt><trkpt lat="52.0032464806" lon="-2.2257776745"><ele>46.76</ele><time>2012-02-01T10:00:11Z</time></trkpt><trkpt lat="52.0032429602" lon="-2.2257726453"><ele>47.24</ele><time>2012-02-01T10:00:28Z</time></trkpt><trkpt lat="52.0032608975" lon="-2.2257381957"><ele>47.24</ele><time>2012-02-01T10:00:43Z</time></trkpt><trkpt lat="52.0032218378" lon="-2.2255551349"><ele>46.76</ele><time>2012-02-01T10:00:52Z</time></trkpt><trkpt lat="52.0031993743" lon="-2.2255138960"><ele>46.76</ele><time>2012-02-01T10:00:54Z</time></trkpt><trkpt lat="52.0029829536" lon="-2.2251924500"><ele>47.24</ele><time>2012-02-01T10:01:10Z</time></trkpt><trkpt lat="52.0027646050" lon="-2.2250001691"><ele>48.68</ele><time>2012-02-01T10:01:24Z</time></trkpt><trkpt lat="52.0026258007" lon="-2.2248390689"><ele>49.65</ele><time>2012-02-01T10:01:38Z</time></trkpt><trkpt lat="52.0024593361" lon="-2.2245803196"><ele>49.65</ele><time>2012-02-01T10:01:57Z</time></trkpt><trkpt lat="52.0022990741" lon="-2.2243505716"><ele>49.16</ele><time>2012-02-01T10:02:13Z</time></trkpt><trkpt lat="52.0022461843" lon="-2.2242445406"><ele>49.65</ele><time>2012-02-01T10:02:29Z</time></trkpt><trkpt lat="52.0022521354" lon="-2.2242343985"><ele>49.65</ele><time>2012-02-01T10:02:30Z</time></trkpt><trkpt lat="52.0022676419" lon="-2.2241996136"><ele>48.68</ele><time>2012-02-01T10:02:32Z</time></trkpt><trkpt lat="52.0022766944" lon="-2.2241641581"><ele>48.20</ele><time>2012-02-01T10:02:34Z</time></trkpt><trkpt lat="52.0023553167" lon="-2.2239334043"><ele>48.20</ele><time>2012-02-01T10:02:44Z</time></trkpt><trkpt lat="52.0024577435" lon="-2.2237084340"><ele>46.76</ele><time>2012-02-01T10:02:56Z</time></trkpt><trkpt lat="52.0025877468" lon="-2.2233540472"><ele>44.36</ele><time>2012-02-01T10:03:15Z</time></trkpt><trkpt lat="52.0026502758" lon="-2.2232086211"><ele>43.40</ele><time>2012-02-01T10:03:25Z</time></trkpt><trkpt lat="52.0027509425" lon="-2.2229568288"><ele>42.92</ele><time>2012-02-01T10:03:40Z</time></trkpt><trkpt lat="52.0027760044" lon="-2.2228789609"><ele>41.47</ele><time>2012-02-01T10:03:44Z</time></trkpt><trkpt lat="52.0028407965" lon="-2.2227209620"><ele>40.99</ele><time>2012-02-01T10:03:52Z</time></trkpt><trkpt lat="52.0030210912" lon="-2.2224261705"><ele>40.51</ele><time>2012-02-01T10:04:10Z</time></trkpt><trkpt lat="52.0031109452" lon="-2.2222745419"><ele>39.55</ele><time>2012-02-01T10:04:27Z</time></trkpt><trkpt lat="52.0031109452" lon="-2.2222745419"><ele>40.03</ele><time>2012-02-01T10:04:52Z</time></trkpt><trkpt lat="52.0031361748" lon="-2.2222097497"><ele>39.07</ele><time>2012-02-01T10:05:09Z</time></trkpt><trkpt lat="52.0031728037" lon="-2.2221541777"><ele>39.55</ele><time>2012-02-01T10:05:13Z</time></trkpt><trkpt lat="52.0032733865" lon="-2.2218365036"><ele>40.03</ele><time>2012-02-01T10:05:31Z</time></trkpt><trkpt lat="52.0033398550" lon="-2.2215805203"><ele>40.03</ele><time>2012-02-01T10:05:47Z</time></trkpt><trkpt lat="52.0034204051" lon="-2.2213234473"><ele>39.55</ele><time>2012-02-01T10:06:02Z</time></trkpt><trkpt lat="52.0035069901" lon="-2.2210589983"><ele>41.47</ele><time>2012-02-01T10:06:18Z</time></trkpt><trkpt lat="52.0035919826" lon="-2.2208065353"><ele>41.47</ele><time>2012-02-01T10:06:33Z</time></trkpt><trkpt lat="52.0037089102" lon="-2.2205684893"><ele>42.44</ele><time>2012-02-01T10:06:49Z</time></trkpt><trkpt lat="52.0038198866" lon="-2.2202962451"><ele>43.88</ele><time>2012-02-01T10:07:06Z</time></trkpt><trkpt lat="52.0038871933" lon="-2.2201555129"><ele>45.32</ele><time>2012-02-01T10:07:23Z</time></trkpt><trkpt lat="52.0038868580" lon="-2.2201528307"><ele>45.32</ele><time>2012-02-01T10:07:42Z</time></trkpt><trkpt lat="52.0038867742" lon="-2.2201320436"><ele>44.84</ele><time>2012-02-01T10:08:03Z</time></trkpt><trkpt lat="52.0038926415" lon="-2.2200910561"><ele>45.32</ele><time>2012-02-01T10:08:12Z</time></trkpt><trkpt lat="52.0039211400" lon="-2.2199437860"><ele>44.84</ele><time>2012-02-01T10:08:21Z</time></trkpt><trkpt lat="52.0040342119" lon="-2.2197006270"><ele>45.32</ele><time>2012-02-01T10:08:40Z</time></trkpt><trkpt lat="52.0041202102" lon="-2.2194049973"><ele>45.80</ele><time>2012-02-01T10:08:57Z</time></trkpt><trkpt lat="52.0042235591" lon="-2.2191424761"><ele>45.80</ele><time>2012-02-01T10:09:11Z</time></trkpt><trkpt lat="52.0042302646" lon="-2.2191076912"><ele>45.80</ele><time>2012-02-01T10:09:13Z</time></trkpt><trkpt lat="52.0043234713" lon="-2.2187759355"><ele>44.84</ele><time>2012-02-01T10:09:31Z</time></trkpt><trkpt lat="52.0044460986" lon="-2.2184334509"><ele>44.84</ele><time>2012-02-01T10:09:51Z</time></trkpt><trkpt lat="52.0044896007" lon="-2.2182917967"><ele>44.84</ele><time>2012-02-01T10:10:08Z</time></trkpt><trkpt lat="52.0044922829" lon="-2.2182783019"><ele>44.36</ele><time>2012-02-01T10:10:29Z</time></trkpt><trkpt lat="52.0045064483" lon="-2.2182715964"><ele>44.36</ele><time>2012-02-01T10:10:51Z</time></trkpt><trkpt lat="52.0045797061" lon="-2.2181293555"><ele>43.88</ele><time>2012-02-01T10:11:05Z</time></trkpt><trkpt lat="52.0045583323" lon="-2.2180734482"><ele>43.40</ele><time>2012-02-01T10:11:11Z</time></trkpt><trkpt lat="52.0044093858" lon="-2.2179011162"><ele>44.36</ele><time>2012-02-01T10:11:28Z</time></trkpt><trkpt lat="52.0042311028" lon="-2.2177437041"><ele>44.84</ele><time>2012-02-01T10:11:45Z</time></trkpt><trkpt lat="52.0041948091" lon="-2.2177083325"><ele>44.84</ele><time>2012-02-01T10:11:53Z</time></trkpt><trkpt lat="52.0040782169" lon="-2.2175972722"><ele>45.32</ele><time>2012-02-01T10:12:07Z</time></trkpt><trkpt lat="52.0039115846" lon="-2.2174743097"><ele>45.80</ele><time>2012-02-01T10:12:25Z</time></trkpt><trkpt lat="52.0036991872" lon="-2.2173540294"><ele>45.80</ele><time>2012-02-01T10:12:44Z</time></trkpt><trkpt lat="52.0034929924" lon="-2.2172561288"><ele>46.76</ele><time>2012-02-01T10:13:02Z</time></trkpt><trkpt lat="52.0033109374" lon="-2.2170858923"><ele>46.28</ele><time>2012-02-01T10:13:19Z</time></trkpt><trkpt lat="52.0031350851" lon="-2.2168833856"><ele>44.84</ele><time>2012-02-01T10:13:36Z</time></trkpt><trkpt lat="52.0030638389" lon="-2.2167418152"><ele>45.32</ele><time>2012-02-01T10:13:47Z</time></trkpt><trkpt lat="52.0029857196" lon="-2.2165842354"><ele>44.36</ele><time>2012-02-01T10:14:02Z</time></trkpt><trkpt lat="52.0028690435" lon="-2.2163342033"><ele>43.40</ele><time>2012-02-01T10:14:20Z</time></trkpt><trkpt lat="52.0027671196" lon="-2.2161129210"><ele>42.92</ele><time>2012-02-01T10:14:36Z</time></trkpt><trkpt lat="52.0026523713" lon="-2.2158244997"><ele>42.92</ele><time>2012-02-01T10:14:53Z</time></trkpt><trkpt lat="52.0025602542" lon="-2.2156013735"><ele>42.92</ele><time>2012-02-01T10:15:10Z</time></trkpt><trkpt lat="52.0024573244" lon="-2.2153765708"><ele>42.92</ele><time>2012-02-01T10:15:27Z</time></trkpt><trkpt lat="52.0022917818" lon="-2.2148682084"><ele>42.92</ele><time>2012-02-01T10:15:46Z</time></trkpt><trkpt lat="52.0021788776" lon="-2.2145911865"><ele>42.92</ele><time>2012-02-01T10:16:03Z</time></trkpt><trkpt lat="52.0020677336" lon="-2.2143865004"><ele>42.92</ele><time>2012-02-01T10:16:21Z</time></trkpt><trkpt lat="52.0019815676" lon="-2.2141280863"><ele>43.40</ele><time>2012-02-01T10:16:38Z</time></trkpt><trkpt lat="52.0018609520" lon="-2.2138563450"><ele>43.88</ele><time>2012-02-01T10:16:56Z</time></trkpt><trkpt lat="52.0016914699" lon="-2.2134966776"><ele>43.40</ele><time>2012-02-01T10:17:15Z</time></trkpt><trkpt lat="52.0016555954" lon="-2.2134649940"><ele>43.40</ele><time>2012-02-01T10:17:19Z</time></trkpt><trkpt lat="52.0016247500" lon="-2.2134249285"><ele>43.88</ele><time>2012-02-01T10:17:24Z</time></trkpt><trkpt lat="52.0015138574" lon="-2.2132044844"><ele>43.88</ele><time>2012-02-01T10:17:44Z</time></trkpt><trkpt lat="52.0014014561" lon="-2.2129536141"><ele>43.40</ele><time>2012-02-01T10:18:03Z</time></trkpt><trkpt lat="52.0012883842" lon="-2.2126877401"><ele>43.40</ele><time>2012-02-01T10:18:19Z</time></trkpt><trkpt lat="52.0013078302" lon="-2.2125926055"><ele>42.92</ele><time>2012-02-01T10:18:38Z</time></trkpt><trkpt lat="52.0013158768" lon="-2.2125250474"><ele>41.95</ele><time>2012-02-01T10:18:54Z</time></trkpt><trkpt lat="52.0013252646" lon="-2.2123273183"><ele>42.44</ele><time>2012-02-01T10:19:08Z</time></trkpt><trkpt lat="52.0013219956" lon="-2.2123046033"><ele>41.95</ele><time>2012-02-01T10:19:09Z</time></trkpt><trkpt lat="52.0013203193" lon="-2.2119911201"><ele>41.47</ele><time>2012-02-01T10:19:26Z</time></trkpt><trkpt lat="52.0013132785" lon="-2.2118068021"><ele>41.47</ele><time>2012-02-01T10:19:40Z</time></trkpt><trkpt lat="52.0013133623" lon="-2.2117929719"><ele>41.95</ele><time>2012-02-01T10:19:41Z</time></trkpt><trkpt lat="52.0013057347" lon="-2.2115188837"><ele>41.47</ele><time>2012-02-01T10:19:58Z</time></trkpt><trkpt lat="52.0012797508" lon="-2.2111971863"><ele>41.47</ele><time>2012-02-01T10:20:16Z</time></trkpt><trkpt lat="52.0012691058" lon="-2.2109242715"><ele>41.95</ele><time>2012-02-01T10:20:33Z</time></trkpt><trkpt lat="52.0012659207" lon="-2.2107108682"><ele>41.95</ele><time>2012-02-01T10:20:47Z</time></trkpt><trkpt lat="52.0012553595" lon="-2.2103968821"><ele>41.95</ele><time>2012-02-01T10:21:04Z</time></trkpt><trkpt lat="52.0012418646" lon="-2.2100666352"><ele>41.95</ele><time>2012-02-01T10:21:23Z</time></trkpt><trkpt lat="52.0012598019" lon="-2.2099220473"><ele>41.47</ele><time>2012-02-01T10:21:36Z</time></trkpt><trkpt lat="52.0012552757" lon="-2.2098161001"><ele>41.95</ele><time>2012-02-01T10:21:51Z</time></trkpt><trkpt lat="52.0012571197" lon="-2.2095202189"><ele>42.44</ele><time>2012-02-01T10:22:09Z</time></trkpt><trkpt lat="52.0012510009" lon="-2.2092817537"><ele>42.44</ele><time>2012-02-01T10:22:25Z</time></trkpt><trkpt lat="52.0012473967" lon="-2.2090250161"><ele>42.44</ele><time>2012-02-01T10:22:42Z</time></trkpt><trkpt lat="52.0012165513" lon="-2.2087614052"><ele>42.92</ele><time>2012-02-01T10:22:59Z</time></trkpt><trkpt lat="52.0012023859" lon="-2.2086262889"><ele>42.44</ele><time>2012-02-01T10:23:17Z</time></trkpt><trkpt lat="52.0012038108" lon="-2.2086192481"><ele>42.44</ele><time>2012-02-01T10:23:37Z</time></trkpt><trkpt lat="52.0012071636" lon="-2.2085766681"><ele>41.95</ele><time>2012-02-01T10:23:53Z</time></trkpt><trkpt lat="52.0012049843" lon="-2.2085601557"><ele>42.92</ele><time>2012-02-01T10:24:13Z</time></trkpt><trkpt lat="52.0012075827" lon="-2.2085739020"><ele>42.92</ele><time>2012-02-01T10:24:34Z</time></trkpt><trkpt lat="52.0011721272" lon="-2.2083754186"><ele>41.47</ele><time>2012-02-01T10:24:53Z</time></trkpt><trkpt lat="52.0011417847" lon="-2.2080629412"><ele>41.95</ele><time>2012-02-01T10:25:09Z</time></trkpt><trkpt lat="52.0011038147" lon="-2.2077806387"><ele>42.44</ele><time>2012-02-01T10:25:24Z</time></trkpt><trkpt lat="52.0010655094" lon="-2.2074072249"><ele>40.51</ele><time>2012-02-01T10:25:42Z</time></trkpt><trkpt lat="52.0010184869" lon="-2.2071731184"><ele>42.44</ele><time>2012-02-01T10:25:58Z</time></trkpt><trkpt lat="52.0009994600" lon="-2.2071133554"><ele>40.99</ele><time>2012-02-01T10:26:14Z</time></trkpt><trkpt lat="52.0010063332" lon="-2.2070105933"><ele>40.99</ele><time>2012-02-01T10:26:28Z</time></trkpt><trkpt lat="52.0010473207" lon="-2.2067579627"><ele>40.99</ele><time>2012-02-01T10:26:45Z</time></trkpt><trkpt lat="52.0010606479" lon="-2.2067130357"><ele>41.95</ele><time>2012-02-01T10:26:48Z</time></trkpt><trkpt lat="52.0010906551" lon="-2.2064588126"><ele>41.47</ele><time>2012-02-01T10:27:04Z</time></trkpt><trkpt lat="52.0011223387" lon="-2.2061672062"><ele>40.99</ele><time>2012-02-01T10:27:23Z</time></trkpt><trkpt lat="52.0011227578" lon="-2.2058563214"><ele>40.51</ele><time>2012-02-01T10:27:42Z</time></trkpt><trkpt lat="52.0011647511" lon="-2.2054736875"><ele>39.55</ele><time>2012-02-01T10:28:04Z</time></trkpt><trkpt lat="52.0012212452" lon="-2.2051586118"><ele>38.59</ele><time>2012-02-01T10:28:21Z</time></trkpt><trkpt lat="52.0012478996" lon="-2.2049369104"><ele>38.11</ele><time>2012-02-01T10:28:37Z</time></trkpt><trkpt lat="52.0012404397" lon="-2.2048618924"><ele>37.63</ele><time>2012-02-01T10:28:54Z</time></trkpt><trkpt lat="52.0012404397" lon="-2.2048618924"><ele>37.15</ele><time>2012-02-01T10:29:14Z</time></trkpt><trkpt lat="52.0012387633" lon="-2.2048529238"><ele>38.11</ele><time>2012-02-01T10:29:34Z</time></trkpt><trkpt lat="52.0012387633" lon="-2.2048529238"><ele>38.11</ele><time>2012-02-01T10:29:54Z</time></trkpt><trkpt lat="52.0012408588" lon="-2.2048492357"><ele>37.63</ele><time>2012-02-01T10:30:21Z</time></trkpt><trkpt lat="52.0012343209" lon="-2.2047121078"><ele>37.15</ele><time>2012-02-01T10:30:39Z</time></trkpt><trkpt lat="52.0012387633" lon="-2.2044531908"><ele>37.15</ele><time>2012-02-01T10:30:58Z</time></trkpt><trkpt lat="52.0012335666" lon="-2.2043803521"><ele>37.63</ele><time>2012-02-01T10:31:18Z</time></trkpt><trkpt lat="52.0012693573" lon="-2.2041408811"><ele>37.63</ele><time>2012-02-01T10:31:40Z</time></trkpt><trkpt lat="52.0012784097" lon="-2.2040724847"><ele>36.67</ele><time>2012-02-01T10:31:44Z</time></trkpt><trkpt lat="52.0013213251" lon="-2.2036776971"><ele>38.11</ele><time>2012-02-01T10:32:05Z</time></trkpt><trkpt lat="52.0013315510" lon="-2.2033447679"><ele>39.55</ele><time>2012-02-01T10:32:23Z</time></trkpt><trkpt lat="52.0013056509" lon="-2.2032105736"><ele>40.51</ele><time>2012-02-01T10:32:46Z</time></trkpt><trkpt lat="52.0013022982" lon="-2.2032000963"><ele>40.99</ele><time>2012-02-01T10:33:09Z</time></trkpt><trkpt lat="52.0013266895" lon="-2.2030209750"><ele>42.44</ele><time>2012-02-01T10:33:27Z</time></trkpt><trkpt lat="52.0013284497" lon="-2.2029381618"><ele>44.84</ele><time>2012-02-01T10:33:44Z</time></trkpt><trkpt lat="52.0013416093" lon="-2.2028456256"><ele>46.76</ele><time>2012-02-01T10:34:00Z</time></trkpt><trkpt lat="52.0013820939" lon="-2.2025737166"><ele>50.13</ele><time>2012-02-01T10:34:22Z</time></trkpt><trkpt lat="52.0013763942" lon="-2.2023427114"><ele>51.57</ele><time>2012-02-01T10:34:41Z</time></trkpt><trkpt lat="52.0013304614" lon="-2.2020778432"><ele>52.05</ele><time>2012-02-01T10:34:58Z</time></trkpt><trkpt lat="52.0013344008" lon="-2.2017884161"><ele>53.01</ele><time>2012-02-01T10:35:16Z</time></trkpt><trkpt lat="52.0013426989" lon="-2.2015204467"><ele>53.01</ele><time>2012-02-01T10:35:33Z</time></trkpt><trkpt lat="52.0013756398" lon="-2.2013269085"><ele>53.49</ele><time>2012-02-01T10:35:47Z</time></trkpt><trkpt lat="52.0013864525" lon="-2.2011009324"><ele>52.53</ele><time>2012-02-01T10:36:02Z</time></trkpt><trkpt lat="52.0014266018" lon="-2.2008290235"><ele>51.57</ele><time>2012-02-01T10:36:21Z</time></trkpt><trkpt lat="52.0014938246" lon="-2.2005795781"><ele>49.65</ele><time>2012-02-01T10:36:41Z</time></trkpt><trkpt lat="52.0015666634" lon="-2.2004286200"><ele>49.16</ele><time>2012-02-01T10:37:00Z</time></trkpt><trkpt lat="52.0017836709" lon="-2.2004032228"><ele>47.72</ele><time>2012-02-01T10:37:20Z</time></trkpt><trkpt lat="52.0019182842" lon="-2.2004105989"><ele>49.16</ele><time>2012-02-01T10:37:38Z</time></trkpt><trkpt lat="52.0020306017" lon="-2.2003775742"><ele>48.68</ele><time>2012-02-01T10:37:56Z</time></trkpt><trkpt lat="52.0020949747" lon="-2.2003722936"><ele>48.68</ele><time>2012-02-01T10:38:18Z</time></trkpt><trkpt lat="52.0022284146" lon="-2.2003252711"><ele>48.68</ele><time>2012-02-01T10:38:39Z</time></trkpt><trkpt lat="52.0024558157" lon="-2.2003544401"><ele>49.16</ele><time>2012-02-01T10:38:59Z</time></trkpt><trkpt lat="52.0025525428" lon="-2.2003639117"><ele>50.13</ele><time>2012-02-01T10:39:20Z</time></trkpt><trkpt lat="52.0025781076" lon="-2.2003750596"><ele>50.13</ele><time>2012-02-01T10:39:41Z</time></trkpt><trkpt lat="52.0026183408" lon="-2.2003905661"><ele>51.09</ele><time>2012-02-01T10:39:50Z</time></trkpt><trkpt lat="52.0026610047" lon="-2.2003922425"><ele>51.09</ele><time>2012-02-01T10:39:54Z</time></trkpt><trkpt lat="52.0028682891" lon="-2.2003998701"><ele>51.57</ele><time>2012-02-01T10:40:11Z</time></trkpt><trkpt lat="52.0030305628" lon="-2.2003831062"><ele>51.09</ele><time>2012-02-01T10:40:27Z</time></trkpt><trkpt lat="52.0031862147" lon="-2.2003318928"><ele>51.09</ele><time>2012-02-01T10:40:42Z</time></trkpt><trkpt lat="52.0031962730" lon="-2.2003296297"><ele>50.61</ele><time>2012-02-01T10:40:43Z</time></trkpt><trkpt lat="52.0033224206" lon="-2.2002601437"><ele>50.13</ele><time>2012-02-01T10:40:55Z</time></trkpt><trkpt lat="52.0035098400" lon="-2.2001314815"><ele>49.16</ele><time>2012-02-01T10:41:12Z</time></trkpt><trkpt lat="52.0036555175" lon="-2.2000731435"><ele>48.68</ele><time>2012-02-01T10:41:25Z</time></trkpt><trkpt lat="52.0038210601" lon="-2.2001247760"><ele>49.16</ele><time>2012-02-01T10:41:40Z</time></trkpt><trkpt lat="52.0038392488" lon="-2.2001412883"><ele>49.16</ele><time>2012-02-01T10:41:42Z</time></trkpt><trkpt lat="52.0039621275" lon="-2.2003798373"><ele>51.09</ele><time>2012-02-01T10:42:01Z</time></trkpt><trkpt lat="52.0040531550" lon="-2.2005921509"><ele>52.05</ele><time>2012-02-01T10:42:16Z</time></trkpt><trkpt lat="52.0041485410" lon="-2.2008105833"><ele>53.01</ele><time>2012-02-01T10:42:32Z</time></trkpt><trkpt lat="52.0042084716" lon="-2.2009621281"><ele>53.97</ele><time>2012-02-01T10:42:46Z</time></trkpt><trkpt lat="52.0043008402" lon="-2.2009209730"><ele>53.97</ele><time>2012-02-01T10:43:00Z</time></trkpt><trkpt lat="52.0044291671" lon="-2.2007611301"><ele>53.01</ele><time>2012-02-01T10:43:17Z</time></trkpt><trkpt lat="52.0045587514" lon="-2.2005493194"><ele>52.53</ele><time>2012-02-01T10:43:35Z</time></trkpt><trkpt lat="52.0046303328" lon="-2.2004380077"><ele>52.05</ele><time>2012-02-01T10:43:49Z</time></trkpt><trkpt lat="52.0046520419" lon="-2.2004023008"><ele>52.05</ele><time>2012-02-01T10:43:52Z</time></trkpt><trkpt lat="52.0047385432" lon="-2.2002410330"><ele>52.05</ele><time>2012-02-01T10:44:06Z</time></trkpt><trkpt lat="52.0047455002" lon="-2.2002300527"><ele>52.05</ele><time>2012-02-01T10:44:07Z</time></trkpt><trkpt lat="52.0048391260" lon="-2.1999671124"><ele>53.01</ele><time>2012-02-01T10:44:24Z</time></trkpt><trkpt lat="52.0048952848" lon="-2.1997136436"><ele>50.61</ele><time>2012-02-01T10:44:41Z</time></trkpt><trkpt lat="52.0049718115" lon="-2.1995873284"><ele>50.61</ele><time>2012-02-01T10:44:52Z</time></trkpt><trkpt lat="52.0050733164" lon="-2.1993272379"><ele>49.65</ele><time>2012-02-01T10:45:11Z</time></trkpt><trkpt lat="52.0051382761" lon="-2.1991865896"><ele>48.68</ele><time>2012-02-01T10:45:20Z</time></trkpt><trkpt lat="52.0052446425" lon="-2.1989852563"><ele>48.20</ele><time>2012-02-01T10:45:37Z</time></trkpt><trkpt lat="52.0053088479" lon="-2.1990715060"><ele>48.20</ele><time>2012-02-01T10:45:46Z</time></trkpt><trkpt lat="52.0054776594" lon="-2.1992628649"><ele>49.16</ele><time>2012-02-01T10:46:06Z</time></trkpt><trkpt lat="52.0056205709" lon="-2.1994574927"><ele>49.16</ele><time>2012-02-01T10:46:24Z</time></trkpt><trkpt lat="52.0056730416" lon="-2.1995099634"><ele>48.68</ele><time>2012-02-01T10:46:30Z</time></trkpt><trkpt lat="52.0057882089" lon="-2.1996656153"><ele>48.68</ele><time>2012-02-01T10:46:45Z</time></trkpt><trkpt lat="52.0059191342" lon="-2.1997584030"><ele>48.68</ele><time>2012-02-01T10:46:59Z</time></trkpt><trkpt lat="52.0060588606" lon="-2.1999253705"><ele>48.20</ele><time>2012-02-01T10:47:18Z</time></trkpt><trkpt lat="52.0062383171" lon="-2.2001646738"><ele>48.20</ele><time>2012-02-01T10:47:39Z</time></trkpt><trkpt lat="52.0063896943" lon="-2.2003651690"><ele>48.20</ele><time>2012-02-01T10:47:56Z</time></trkpt><trkpt lat="52.0065099746" lon="-2.2004840244"><ele>49.16</ele><time>2012-02-01T10:48:09Z</time></trkpt><trkpt lat="52.0066589210" lon="-2.2006293666"><ele>49.16</ele><time>2012-02-01T10:48:25Z</time></trkpt><trkpt lat="52.0068388805" lon="-2.2007302009"><ele>50.61</ele><time>2012-02-01T10:48:43Z</time></trkpt><trkpt lat="52.0070061833" lon="-2.2007788997"><ele>50.13</ele><time>2012-02-01T10:49:00Z</time></trkpt><trkpt lat="52.0071523637" lon="-2.2007991001"><ele>50.13</ele><time>2012-02-01T10:49:15Z</time></trkpt><trkpt lat="52.0073208399" lon="-2.2008014470"><ele>49.65</ele><time>2012-02-01T10:49:32Z</time></trkpt><trkpt lat="52.0074339118" lon="-2.2008298617"><ele>50.13</ele><time>2012-02-01T10:49:43Z</time></trkpt><trkpt lat="52.0076060761" lon="-2.2008423507"><ele>49.65</ele><time>2012-02-01T10:50:00Z</time></trkpt><trkpt lat="52.0077775698" lon="-2.2008834220"><ele>50.61</ele><time>2012-02-01T10:50:19Z</time></trkpt><trkpt lat="52.0079411007" lon="-2.2009073105"><ele>51.09</ele><time>2012-02-01T10:50:35Z</time></trkpt><trkpt lat="52.0080384985" lon="-2.2009282652"><ele>52.05</ele><time>2012-02-01T10:50:45Z</time></trkpt><trkpt lat="52.0081619639" lon="-2.2008996829"><ele>51.57</ele><time>2012-02-01T10:50:58Z</time></trkpt><trkpt lat="52.0083306078" lon="-2.2008566838"><ele>52.05</ele><time>2012-02-01T10:51:14Z</time></trkpt><trkpt lat="52.0083497185" lon="-2.2008493077"><ele>52.53</ele><time>2012-02-01T10:51:16Z</time></trkpt><trkpt lat="52.0083958190" lon="-2.2008310352"><ele>52.53</ele><time>2012-02-01T10:51:20Z</time></trkpt><trkpt lat="52.0085873455" lon="-2.2007550951"><ele>53.01</ele><time>2012-02-01T10:51:38Z</time></trkpt><trkpt lat="52.0087275747" lon="-2.2006629780"><ele>53.01</ele><time>2012-02-01T10:51:54Z</time></trkpt><trkpt lat="52.0087626111" lon="-2.2006483935"><ele>53.97</ele><time>2012-02-01T10:52:12Z</time></trkpt><trkpt lat="52.0088382158" lon="-2.2007266805"><ele>53.97</ele><time>2012-02-01T10:52:31Z</time></trkpt><trkpt lat="52.0089188498" lon="-2.2009064723"><ele>54.45</ele><time>2012-02-01T10:52:47Z</time></trkpt><trkpt lat="52.0090062730" lon="-2.2010428458"><ele>54.93</ele><time>2012-02-01T10:53:06Z</time></trkpt><trkpt lat="52.0091004018" lon="-2.2011489607"><ele>55.41</ele><time>2012-02-01T10:53:23Z</time></trkpt><trkpt lat="52.0091599971" lon="-2.2012256552"><ele>54.93</ele><time>2012-02-01T10:53:37Z</time></trkpt><trkpt lat="52.0092432294" lon="-2.2013720870"><ele>55.41</ele><time>2012-02-01T10:53:52Z</time></trkpt><trkpt lat="52.0093666110" lon="-2.2015208658"><ele>55.89</ele><time>2012-02-01T10:54:09Z</time></trkpt><trkpt lat="52.0093787648" lon="-2.2015391383"><ele>55.89</ele><time>2012-02-01T10:54:11Z</time></trkpt><trkpt lat="52.0094346721" lon="-2.2015768569"><ele>54.93</ele><time>2012-02-01T10:54:17Z</time></trkpt><trkpt lat="52.0095205028" lon="-2.2017221991"><ele>55.41</ele><time>2012-02-01T10:54:31Z</time></trkpt><trkpt lat="52.0096199960" lon="-2.2018969618"><ele>55.89</ele><time>2012-02-01T10:54:49Z</time></trkpt><trkpt lat="52.0097110234" lon="-2.2020689584"><ele>55.89</ele><time>2012-02-01T10:55:04Z</time></trkpt><trkpt lat="52.0097938366" lon="-2.2021930944"><ele>55.41</ele><time>2012-02-01T10:55:16Z</time></trkpt><trkpt lat="52.0099034719" lon="-2.2023769934"><ele>54.93</ele><time>2012-02-01T10:55:32Z</time></trkpt><trkpt lat="52.0099346526" lon="-2.2024430428"><ele>55.89</ele><time>2012-02-01T10:55:37Z</time></trkpt><trkpt lat="52.0100518316" lon="-2.2026044782"><ele>55.41</ele><time>2012-02-01T10:55:53Z</time></trkpt><trkpt lat="52.0101221558" lon="-2.2027321346"><ele>54.93</ele><time>2012-02-01T10:56:03Z</time></trkpt><trkpt lat="52.0101851039" lon="-2.2028069012"><ele>50.13</ele><time>2012-02-01T10:56:11Z</time></trkpt><trkpt lat="52.0101917256" lon="-2.2028146125"><ele>54.45</ele><time>2012-02-01T10:56:12Z</time></trkpt><trkpt lat="52.0102246664" lon="-2.2028608806"><ele>54.45</ele><time>2012-02-01T10:56:17Z</time></trkpt><trkpt lat="52.0102995168" lon="-2.2030427679"><ele>53.97</ele><time>2012-02-01T10:56:32Z</time></trkpt><trkpt lat="52.0103049651" lon="-2.2032963205"><ele>54.45</ele><time>2012-02-01T10:56:51Z</time></trkpt><trkpt lat="52.0103963278" lon="-2.2035600990"><ele>53.97</ele><time>2012-02-01T10:57:10Z</time></trkpt><trkpt lat="52.0105062146" lon="-2.2038418148"><ele>53.49</ele><time>2012-02-01T10:57:28Z</time></trkpt><trkpt lat="52.0105663128" lon="-2.2040054295"><ele>53.49</ele><time>2012-02-01T10:57:44Z</time></trkpt><trkpt lat="52.0105990861" lon="-2.2040418070"><ele>53.49</ele><time>2012-02-01T10:58:04Z</time></trkpt><trkpt lat="52.0105990861" lon="-2.2040418070"><ele>53.01</ele><time>2012-02-01T10:58:30Z</time></trkpt><trkpt lat="52.0105984993" lon="-2.2040470038"><ele>53.49</ele><time>2012-02-01T10:58:56Z</time></trkpt><trkpt lat="52.0106016006" lon="-2.2040433157"><ele>53.01</ele><time>2012-02-01T10:59:23Z</time></trkpt><trkpt lat="52.0106016006" lon="-2.2040433157"><ele>53.49</ele><time>2012-02-01T10:59:46Z</time></trkpt><trkpt lat="52.0106038637" lon="-2.2040449921"><ele>53.01</ele><time>2012-02-01T11:00:10Z</time></trkpt><trkpt lat="52.0106038637" lon="-2.2040449921"><ele>53.49</ele><time>2012-02-01T11:00:32Z</time></trkpt><trkpt lat="52.0106080547" lon="-2.2040392924"><ele>53.49</ele><time>2012-02-01T11:00:55Z</time></trkpt><trkpt lat="52.0106080547" lon="-2.2040392924"><ele>53.49</ele><time>2012-02-01T11:01:18Z</time></trkpt><trkpt lat="52.0106129162" lon="-2.2040328383"><ele>53.49</ele><time>2012-02-01T11:01:41Z</time></trkpt><trkpt lat="52.0106063783" lon="-2.2040411364"><ele>53.49</ele><time>2012-02-01T11:02:03Z</time></trkpt><trkpt lat="52.0106061269" lon="-2.2040319163"><ele>53.01</ele><time>2012-02-01T11:02:21Z</time></trkpt><trkpt lat="52.0106061269" lon="-2.2040319163"><ele>53.01</ele><time>2012-02-01T11:02:45Z</time></trkpt><trkpt lat="52.0106018521" lon="-2.2040159069"><ele>53.49</ele><time>2012-02-01T11:02:47Z</time></trkpt><trkpt lat="52.0105664805" lon="-2.2040179186"><ele>54.93</ele><time>2012-02-01T11:03:00Z</time></trkpt><trkpt lat="52.0105664805" lon="-2.2040179186"><ele>53.97</ele><time>2012-02-01T11:03:27Z</time></trkpt><trkpt lat="52.0105692465" lon="-2.2040245403"><ele>53.97</ele><time>2012-02-01T11:03:42Z</time></trkpt><trkpt lat="52.0106021035" lon="-2.2040095367"><ele>53.49</ele><time>2012-02-01T11:03:54Z</time></trkpt><trkpt lat="52.0106043667" lon="-2.2040133085"><ele>53.49</ele><time>2012-02-01T11:04:15Z</time></trkpt><trkpt lat="52.0106115751" lon="-2.2040143982"><ele>52.53</ele><time>2012-02-01T11:04:35Z</time></trkpt><trkpt lat="52.0106095634" lon="-2.2040156554"><ele>53.97</ele><time>2012-02-01T11:05:04Z</time></trkpt><trkpt lat="52.0106095634" lon="-2.2040156554"><ele>54.45</ele><time>2012-02-01T11:05:34Z</time></trkpt><trkpt lat="52.0106079709" lon="-2.2040231153"><ele>54.93</ele><time>2012-02-01T11:06:01Z</time></trkpt><trkpt lat="52.0106083900" lon="-2.2040248755"><ele>54.45</ele><time>2012-02-01T11:06:26Z</time></trkpt><trkpt lat="52.0105970744" lon="-2.2040359396"><ele>53.97</ele><time>2012-02-01T11:06:44Z</time></trkpt><trkpt lat="52.0105970744" lon="-2.2040359396"><ele>54.45</ele><time>2012-02-01T11:07:16Z</time></trkpt><trkpt lat="52.0106031932" lon="-2.2040325031"><ele>54.45</ele><time>2012-02-01T11:07:46Z</time></trkpt><trkpt lat="52.0106043667" lon="-2.2040330898"><ele>54.45</ele><time>2012-02-01T11:08:10Z</time></trkpt><trkpt lat="52.0106043667" lon="-2.2040330898"><ele>54.45</ele><time>2012-02-01T11:08:36Z</time></trkpt><trkpt lat="52.0106026903" lon="-2.2040351015"><ele>54.45</ele><time>2012-02-01T11:09:08Z</time></trkpt><trkpt lat="52.0106068812" lon="-2.2040452436"><ele>54.45</ele><time>2012-02-01T11:09:35Z</time></trkpt><trkpt lat="52.0106068812" lon="-2.2040452436"><ele>53.97</ele><time>2012-02-01T11:09:53Z</time></trkpt><trkpt lat="52.0106135868" lon="-2.2040436510"><ele>53.01</ele><time>2012-02-01T11:10:14Z</time></trkpt><trkpt lat="52.0106135868" lon="-2.2040436510"><ele>55.41</ele><time>2012-02-01T11:10:39Z</time></trkpt><trkpt lat="52.0106007624" lon="-2.2040215228"><ele>54.45</ele><time>2012-02-01T11:11:00Z</time></trkpt><trkpt lat="52.0106007624" lon="-2.2040215228"><ele>54.45</ele><time>2012-02-01T11:11:26Z</time></trkpt><trkpt lat="52.0106057916" lon="-2.2040302400"><ele>54.45</ele><time>2012-02-01T11:11:47Z</time></trkpt><trkpt lat="52.0106057916" lon="-2.2040302400"><ele>54.45</ele><time>2012-02-01T11:12:12Z</time></trkpt><trkpt lat="52.0106067136" lon="-2.2040309105"><ele>54.45</ele><time>2012-02-01T11:12:35Z</time></trkpt><trkpt lat="52.0106031094" lon="-2.2040288150"><ele>54.45</ele><time>2012-02-01T11:13:06Z</time></trkpt><trkpt lat="52.0106031094" lon="-2.2040288150"><ele>54.45</ele><time>2012-02-01T11:13:33Z</time></trkpt><trkpt lat="52.0106138382" lon="-2.2040087823"><ele>54.45</ele><time>2012-02-01T11:13:54Z</time></trkpt><trkpt lat="52.0106138382" lon="-2.2040087823"><ele>54.45</ele><time>2012-02-01T11:14:22Z</time></trkpt><trkpt lat="52.0106141735" lon="-2.2040090337"><ele>54.93</ele><time>2012-02-01T11:14:50Z</time></trkpt><trkpt lat="52.0106116589" lon="-2.2040101234"><ele>53.97</ele><time>2012-02-01T11:15:10Z</time></trkpt><trkpt lat="52.0106116589" lon="-2.2040101234"><ele>54.93</ele><time>2012-02-01T11:15:32Z</time></trkpt><trkpt lat="52.0106069651" lon="-2.2040164098"><ele>54.45</ele><time>2012-02-01T11:15:55Z</time></trkpt><trkpt lat="52.0106069651" lon="-2.2040164098"><ele>53.97</ele><time>2012-02-01T11:16:15Z</time></trkpt><trkpt lat="52.0106149279" lon="-2.2040072735"><ele>54.93</ele><time>2012-02-01T11:16:41Z</time></trkpt><trkpt lat="52.0106149279" lon="-2.2040072735"><ele>54.93</ele><time>2012-02-01T11:17:07Z</time></trkpt><trkpt lat="52.0106048696" lon="-2.2040175833"><ele>54.93</ele><time>2012-02-01T11:17:25Z</time></trkpt><trkpt lat="52.0106048696" lon="-2.2040175833"><ele>54.45</ele><time>2012-02-01T11:17:48Z</time></trkpt><trkpt lat="52.0106048696" lon="-2.2040180024"><ele>54.45</ele><time>2012-02-01T11:18:18Z</time></trkpt><trkpt lat="52.0105821546" lon="-2.2039629333"><ele>55.89</ele><time>2012-02-01T11:18:27Z</time></trkpt><trkpt lat="52.0105094835" lon="-2.2037613485"><ele>53.97</ele><time>2012-02-01T11:18:42Z</time></trkpt><trkpt lat="52.0104323700" lon="-2.2035559919"><ele>55.41</ele><time>2012-02-01T11:18:59Z</time></trkpt><trkpt lat="52.0103935618" lon="-2.2034715861"><ele>55.41</ele><time>2012-02-01T11:19:06Z</time></trkpt><trkpt lat="52.0103116706" lon="-2.2033095639"><ele>55.89</ele><time>2012-02-01T11:19:19Z</time></trkpt><trkpt lat="52.0103019476" lon="-2.2032772936"><ele>55.41</ele><time>2012-02-01T11:19:21Z</time></trkpt><trkpt lat="52.0102871116" lon="-2.2032182850"><ele>54.93</ele><time>2012-02-01T11:19:24Z</time></trkpt><trkpt lat="52.0102781430" lon="-2.2031831648"><ele>55.89</ele><time>2012-02-01T11:19:27Z</time></trkpt><trkpt lat="52.0102811605" lon="-2.2031342983"><ele>55.41</ele><time>2012-02-01T11:19:30Z</time></trkpt><trkpt lat="52.0104347169" lon="-2.2029700968"><ele>54.45</ele><time>2012-02-01T11:19:47Z</time></trkpt><trkpt lat="52.0105959009" lon="-2.2028442007"><ele>53.97</ele><time>2012-02-01T11:20:05Z</time></trkpt><trkpt lat="52.0107497089" lon="-2.2026885487"><ele>53.49</ele><time>2012-02-01T11:20:23Z</time></trkpt><trkpt lat="52.0108618587" lon="-2.2027058154"><ele>53.49</ele><time>2012-02-01T11:20:38Z</time></trkpt><trkpt lat="52.0109056961" lon="-2.2027321346"><ele>53.49</ele><time>2012-02-01T11:20:41Z</time></trkpt><trkpt lat="52.0109655429" lon="-2.2027481440"><ele>53.49</ele><time>2012-02-01T11:20:44Z</time></trkpt><trkpt lat="52.0111328457" lon="-2.2029933985"><ele>52.53</ele><time>2012-02-01T11:21:02Z</time></trkpt><trkpt lat="52.0112935267" lon="-2.2030663211"><ele>52.05</ele><time>2012-02-01T11:21:19Z</time></trkpt><trkpt lat="52.0114273019" lon="-2.2031849250"><ele>51.57</ele><time>2012-02-01T11:21:34Z</time></trkpt><trkpt lat="52.0115496777" lon="-2.2033724282"><ele>51.57</ele><time>2012-02-01T11:21:50Z</time></trkpt><trkpt lat="52.0116507635" lon="-2.2036360390"><ele>51.09</ele><time>2012-02-01T11:22:07Z</time></trkpt><trkpt lat="52.0115635917" lon="-2.2038560640"><ele>50.61</ele><time>2012-02-01T11:22:22Z</time></trkpt><trkpt lat="52.0114987995" lon="-2.2039874084"><ele>50.61</ele><time>2012-02-01T11:22:33Z</time></trkpt><trkpt lat="52.0115133002" lon="-2.2041116282"><ele>50.61</ele><time>2012-02-01T11:22:42Z</time></trkpt><trkpt lat="52.0115692075" lon="-2.2043505963"><ele>49.65</ele><time>2012-02-01T11:22:59Z</time></trkpt><trkpt lat="52.0116192475" lon="-2.2045702022"><ele>48.20</ele><time>2012-02-01T11:23:13Z</time></trkpt><trkpt lat="52.0116781723" lon="-2.2048000339"><ele>46.76</ele><time>2012-02-01T11:23:29Z</time></trkpt><trkpt lat="52.0117099397" lon="-2.2050533351"><ele>45.80</ele><time>2012-02-01T11:23:46Z</time></trkpt><trkpt lat="52.0117464848" lon="-2.2052281816"><ele>44.84</ele><time>2012-02-01T11:24:02Z</time></trkpt><trkpt lat="52.0118406136" lon="-2.2054717597"><ele>43.40</ele><time>2012-02-01T11:24:18Z</time></trkpt><trkpt lat="52.0118413679" lon="-2.2055182792"><ele>43.40</ele><time>2012-02-01T11:24:38Z</time></trkpt><trkpt lat="52.0117390249" lon="-2.2057078779"><ele>43.40</ele><time>2012-02-01T11:24:50Z</time></trkpt><trkpt lat="52.0116545353" lon="-2.2057975642"><ele>43.40</ele><time>2012-02-01T11:25:03Z</time></trkpt><trkpt lat="52.0114679541" lon="-2.2059199400"><ele>43.88</ele><time>2012-02-01T11:25:22Z</time></trkpt><trkpt lat="52.0113411359" lon="-2.2060914338"><ele>44.36</ele><time>2012-02-01T11:25:38Z</time></trkpt><trkpt lat="52.0111677144" lon="-2.2062196769"><ele>44.84</ele><time>2012-02-01T11:25:57Z</time></trkpt><trkpt lat="52.0110296644" lon="-2.2063699644"><ele>44.36</ele><time>2012-02-01T11:26:12Z</time></trkpt><trkpt lat="52.0109503716" lon="-2.2064515203"><ele>44.36</ele><time>2012-02-01T11:26:22Z</time></trkpt><trkpt lat="52.0108230505" lon="-2.2065790091"><ele>44.36</ele><time>2012-02-01T11:26:39Z</time></trkpt><trkpt lat="52.0106837433" lon="-2.2066925839"><ele>44.36</ele><time>2012-02-01T11:26:54Z</time></trkpt><trkpt lat="52.0106140897" lon="-2.2068250179"><ele>44.84</ele><time>2012-02-01T11:27:09Z</time></trkpt><trkpt lat="52.0106452703" lon="-2.2069745511"><ele>43.88</ele><time>2012-02-01T11:27:24Z</time></trkpt><trkpt lat="52.0106534008" lon="-2.2069951706"><ele>43.88</ele><time>2012-02-01T11:27:44Z</time></trkpt><trkpt lat="52.0106699970" lon="-2.2070395947"><ele>43.40</ele><time>2012-02-01T11:28:07Z</time></trkpt><trkpt lat="52.0106393192" lon="-2.2071369085"><ele>44.36</ele><time>2012-02-01T11:28:21Z</time></trkpt><trkpt lat="52.0106333680" lon="-2.2071484756"><ele>43.40</ele><time>2012-02-01T11:28:37Z</time></trkpt><trkpt lat="52.0106333680" lon="-2.2071484756"><ele>43.88</ele><time>2012-02-01T11:28:42Z</time></trkpt><trkpt lat="52.0107263234" lon="-2.2072001081"><ele>44.36</ele><time>2012-02-01T11:28:55Z</time></trkpt><trkpt lat="52.0107279997" lon="-2.2072302829"><ele>43.88</ele><time>2012-02-01T11:29:08Z</time></trkpt><trkpt lat="52.0107528940" lon="-2.2072792333"><ele>43.88</ele><time>2012-02-01T11:29:17Z</time></trkpt><trkpt lat="52.0107591804" lon="-2.2073257528"><ele>43.88</ele><time>2012-02-01T11:29:20Z</time></trkpt><trkpt lat="52.0108108129" lon="-2.2074127570"><ele>44.36</ele><time>2012-02-01T11:29:25Z</time></trkpt><trkpt lat="52.0108396467" lon="-2.2074683290"><ele>44.84</ele><time>2012-02-01T11:29:28Z</time></trkpt><trkpt lat="52.0109300874" lon="-2.2075186204"><ele>44.84</ele><time>2012-02-01T11:29:34Z</time></trkpt><trkpt lat="52.0109771937" lon="-2.2075166926"><ele>45.32</ele><time>2012-02-01T11:29:38Z</time></trkpt><trkpt lat="52.0110292453" lon="-2.2076020204"><ele>45.80</ele><time>2012-02-01T11:29:43Z</time></trkpt><trkpt lat="52.0110678859" lon="-2.2079970594"><ele>47.24</ele><time>2012-02-01T11:30:01Z</time></trkpt><trkpt lat="52.0110603422" lon="-2.2083395440"><ele>48.68</ele><time>2012-02-01T11:30:17Z</time></trkpt><trkpt lat="52.0110761002" lon="-2.2086750716"><ele>48.20</ele><time>2012-02-01T11:30:34Z</time></trkpt><trkpt lat="52.0110833924" lon="-2.2087802645"><ele>48.20</ele><time>2012-02-01T11:30:39Z</time></trkpt><trkpt lat="52.0111731626" lon="-2.2089277860"><ele>48.68</ele><time>2012-02-01T11:30:52Z</time></trkpt><trkpt lat="52.0112339314" lon="-2.2090837732"><ele>49.16</ele><time>2012-02-01T11:31:02Z</time></trkpt><trkpt lat="52.0112937782" lon="-2.2093001101"><ele>48.20</ele><time>2012-02-01T11:31:17Z</time></trkpt><trkpt lat="52.0113459975" lon="-2.2095146868"><ele>47.24</ele><time>2012-02-01T11:31:32Z</time></trkpt><trkpt lat="52.0114089455" lon="-2.2097829916"><ele>45.80</ele><time>2012-02-01T11:31:49Z</time></trkpt><trkpt lat="52.0114472508" lon="-2.2100354545"><ele>44.36</ele><time>2012-02-01T11:32:05Z</time></trkpt><trkpt lat="52.0115014818" lon="-2.2102664597"><ele>43.88</ele><time>2012-02-01T11:32:21Z</time></trkpt><trkpt lat="52.0115372725" lon="-2.2105206829"><ele>42.44</ele><time>2012-02-01T11:32:37Z</time></trkpt><trkpt lat="52.0115401223" lon="-2.2105336748"><ele>42.92</ele><time>2012-02-01T11:32:38Z</time></trkpt><trkpt lat="52.0115753263" lon="-2.2107711341"><ele>40.99</ele><time>2012-02-01T11:32:55Z</time></trkpt><trkpt lat="52.0115443971" lon="-2.2110064980"><ele>38.59</ele><time>2012-02-01T11:33:12Z</time></trkpt><trkpt lat="52.0115082711" lon="-2.2111447155"><ele>37.15</ele><time>2012-02-01T11:33:24Z</time></trkpt><trkpt lat="52.0114532020" lon="-2.2112743836"><ele>35.71</ele><time>2012-02-01T11:33:35Z</time></trkpt><trkpt lat="52.0113949478" lon="-2.2114615515"><ele>33.78</ele><time>2012-02-01T11:33:49Z</time></trkpt><trkpt lat="52.0113830455" lon="-2.2114766389"><ele>33.30</ele><time>2012-02-01T11:33:50Z</time></trkpt><trkpt lat="52.0113302395" lon="-2.2116101626"><ele>32.34</ele><time>2012-02-01T11:34:00Z</time></trkpt><trkpt lat="52.0112597477" lon="-2.2117900383"><ele>32.34</ele><time>2012-02-01T11:34:15Z</time></trkpt><trkpt lat="52.0111030061" lon="-2.2118374798"><ele>30.90</ele><time>2012-02-01T11:34:33Z</time></trkpt><trkpt lat="52.0110685565" lon="-2.2118368093"><ele>31.38</ele><time>2012-02-01T11:34:37Z</time></trkpt><trkpt lat="52.0110115595" lon="-2.2118619550"><ele>30.90</ele><time>2012-02-01T11:34:50Z</time></trkpt><trkpt lat="52.0110348612" lon="-2.2119870130"><ele>29.94</ele><time>2012-02-01T11:35:05Z</time></trkpt><trkpt lat="52.0110413153" lon="-2.2120068781"><ele>29.94</ele><time>2012-02-01T11:35:20Z</time></trkpt><trkpt lat="52.0110435784" lon="-2.2120306827"><ele>30.42</ele><time>2012-02-01T11:35:38Z</time></trkpt><trkpt lat="52.0110488590" lon="-2.2120889369"><ele>30.42</ele><time>2012-02-01T11:35:44Z</time></trkpt><trkpt lat="52.0110445842" lon="-2.2121504601"><ele>31.38</ele><time>2012-02-01T11:35:47Z</time></trkpt><trkpt lat="52.0110389683" lon="-2.2124151606"><ele>31.86</ele><time>2012-02-01T11:36:02Z</time></trkpt><trkpt lat="52.0110553131" lon="-2.2124458384"><ele>31.86</ele><time>2012-02-01T11:36:08Z</time></trkpt><trkpt lat="52.0110773575" lon="-2.2124977224"><ele>31.38</ele><time>2012-02-01T11:36:16Z</time></trkpt><trkpt lat="52.0110611804" lon="-2.2125517856"><ele>31.38</ele><time>2012-02-01T11:36:20Z</time></trkpt><trkpt lat="52.0109895151" lon="-2.2127623390"><ele>33.30</ele><time>2012-02-01T11:36:36Z</time></trkpt><trkpt lat="52.0109750982" lon="-2.2130285483"><ele>33.78</ele><time>2012-02-01T11:36:49Z</time></trkpt><trkpt lat="52.0109704044" lon="-2.2131078411"><ele>34.74</ele><time>2012-02-01T11:36:53Z</time></trkpt><trkpt lat="52.0109666325" lon="-2.2132171411"><ele>35.23</ele><time>2012-02-01T11:36:59Z</time></trkpt><trkpt lat="52.0109508745" lon="-2.2134914808"><ele>34.26</ele><time>2012-02-01T11:37:14Z</time></trkpt><trkpt lat="52.0109362062" lon="-2.2135663312"><ele>35.71</ele><time>2012-02-01T11:37:19Z</time></trkpt><trkpt lat="52.0109231304" lon="-2.2136651538"><ele>35.23</ele><time>2012-02-01T11:37:24Z</time></trkpt><trkpt lat="52.0108880941" lon="-2.2138997633"><ele>35.71</ele><time>2012-02-01T11:37:38Z</time></trkpt><trkpt lat="52.0108427480" lon="-2.2140945587"><ele>35.71</ele><time>2012-02-01T11:37:50Z</time></trkpt><trkpt lat="52.0107795484" lon="-2.2143536434"><ele>34.26</ele><time>2012-02-01T11:38:05Z</time></trkpt><trkpt lat="52.0107410755" lon="-2.2145749256"><ele>33.30</ele><time>2012-02-01T11:38:18Z</time></trkpt><trkpt lat="52.0106834918" lon="-2.2147993930"><ele>32.82</ele><time>2012-02-01T11:38:32Z</time></trkpt><trkpt lat="52.0106228068" lon="-2.2150630876"><ele>30.90</ele><time>2012-02-01T11:38:47Z</time></trkpt><trkpt lat="52.0105746109" lon="-2.2153400257"><ele>30.42</ele><time>2012-02-01T11:39:03Z</time></trkpt><trkpt lat="52.0105420053" lon="-2.2156134434"><ele>29.94</ele><time>2012-02-01T11:39:20Z</time></trkpt><trkpt lat="52.0105056278" lon="-2.2158519924"><ele>28.98</ele><time>2012-02-01T11:39:36Z</time></trkpt><trkpt lat="52.0104837511" lon="-2.2160591092"><ele>28.98</ele><time>2012-02-01T11:39:49Z</time></trkpt><trkpt lat="52.0104504749" lon="-2.2162983287"><ele>28.98</ele><time>2012-02-01T11:40:04Z</time></trkpt><trkpt lat="52.0104475413" lon="-2.2163407411"><ele>28.98</ele><time>2012-02-01T11:40:07Z</time></trkpt><trkpt lat="52.0104373153" lon="-2.2164416593"><ele>29.46</ele><time>2012-02-01T11:40:22Z</time></trkpt><trkpt lat="52.0104401652" lon="-2.2164918669"><ele>29.46</ele><time>2012-02-01T11:40:42Z</time></trkpt><trkpt lat="52.0104363095" lon="-2.2165139951"><ele>28.98</ele><time>2012-02-01T11:40:58Z</time></trkpt><trkpt lat="52.0104363095" lon="-2.2165139951"><ele>28.50</ele><time>2012-02-01T11:41:22Z</time></trkpt><trkpt lat="52.0104322862" lon="-2.2165696509"><ele>28.98</ele><time>2012-02-01T11:41:26Z</time></trkpt><trkpt lat="52.0104436856" lon="-2.2166605946"><ele>28.50</ele><time>2012-02-01T11:41:33Z</time></trkpt><trkpt lat="52.0104151033" lon="-2.2167271469"><ele>28.98</ele><time>2012-02-01T11:41:37Z</time></trkpt><trkpt lat="52.0103334635" lon="-2.2168664541"><ele>28.98</ele><time>2012-02-01T11:41:47Z</time></trkpt><trkpt lat="52.0103232376" lon="-2.2168968804"><ele>28.98</ele><time>2012-02-01T11:41:49Z</time></trkpt><trkpt lat="52.0103093237" lon="-2.2169236187"><ele>28.98</ele><time>2012-02-01T11:41:51Z</time></trkpt><trkpt lat="52.0102825016" lon="-2.2169582359"><ele>28.50</ele><time>2012-02-01T11:41:54Z</time></trkpt><trkpt lat="52.0101674180" lon="-2.2171396203"><ele>28.98</ele><time>2012-02-01T11:42:08Z</time></trkpt><trkpt lat="52.0101584494" lon="-2.2171519417"><ele>28.98</ele><time>2012-02-01T11:42:09Z</time></trkpt><trkpt lat="52.0100753848" lon="-2.2173023131"><ele>28.98</ele><time>2012-02-01T11:42:19Z</time></trkpt><trkpt lat="52.0100253448" lon="-2.2173692845"><ele>28.98</ele><time>2012-02-01T11:42:25Z</time></trkpt><trkpt lat="52.0099934097" lon="-2.2174671851"><ele>28.50</ele><time>2012-02-01T11:42:31Z</time></trkpt><trkpt lat="52.0099934936" lon="-2.2176763974"><ele>28.98</ele><time>2012-02-01T11:42:45Z</time></trkpt><trkpt lat="52.0099906437" lon="-2.2176981065"><ele>28.98</ele><time>2012-02-01T11:43:01Z</time></trkpt><trkpt lat="52.0099749696" lon="-2.2177240904"><ele>28.98</ele><time>2012-02-01T11:43:19Z</time></trkpt><trkpt lat="52.0099964272" lon="-2.2177137807"><ele>29.46</ele><time>2012-02-01T11:43:35Z</time></trkpt><trkpt lat="52.0100021269" lon="-2.2177196480"><ele>28.98</ele><time>2012-02-01T11:43:49Z</time></trkpt><trkpt lat="52.0099945832" lon="-2.2177938279"><ele>29.46</ele><time>2012-02-01T11:43:57Z</time></trkpt><trkpt lat="52.0099665038" lon="-2.2178563569"><ele>28.98</ele><time>2012-02-01T11:44:01Z</time></trkpt><trkpt lat="52.0099405199" lon="-2.2179296985"><ele>28.98</ele><time>2012-02-01T11:44:06Z</time></trkpt><trkpt lat="52.0099125244" lon="-2.2179864440"><ele>29.94</ele><time>2012-02-01T11:44:10Z</time></trkpt><trkpt lat="52.0098836906" lon="-2.2180374898"><ele>28.98</ele><time>2012-02-01T11:44:14Z</time></trkpt><trkpt lat="52.0097923279" lon="-2.2182460316"><ele>29.46</ele><time>2012-02-01T11:44:28Z</time></trkpt><trkpt lat="52.0097157173" lon="-2.2184384800"><ele>29.94</ele><time>2012-02-01T11:44:42Z</time></trkpt><trkpt lat="52.0096454769" lon="-2.2186153382"><ele>29.94</ele><time>2012-02-01T11:44:54Z</time></trkpt><trkpt lat="52.0095694531" lon="-2.2188056912"><ele>29.94</ele><time>2012-02-01T11:45:07Z</time></trkpt><trkpt lat="52.0095188264" lon="-2.2190279793"><ele>30.90</ele><time>2012-02-01T11:45:22Z</time></trkpt><trkpt lat="52.0094683673" lon="-2.2192795202"><ele>30.42</ele><time>2012-02-01T11:45:36Z</time></trkpt><trkpt lat="52.0094300620" lon="-2.2195567936"><ele>30.90</ele><time>2012-02-01T11:45:50Z</time></trkpt><trkpt lat="52.0093557984" lon="-2.2197815124"><ele>31.38</ele><time>2012-02-01T11:46:06Z</time></trkpt><trkpt lat="52.0093014836" lon="-2.2198566981"><ele>32.34</ele><time>2012-02-01T11:46:18Z</time></trkpt><trkpt lat="52.0092453249" lon="-2.2198935784"><ele>30.42</ele><time>2012-02-01T11:46:24Z</time></trkpt><trkpt lat="52.0091310795" lon="-2.2198810894"><ele>30.42</ele><time>2012-02-01T11:46:37Z</time></trkpt><trkpt lat="52.0089685544" lon="-2.2198184766"><ele>30.42</ele><time>2012-02-01T11:46:52Z</time></trkpt><trkpt lat="52.0089344401" lon="-2.2198044788"><ele>30.42</ele><time>2012-02-01T11:46:55Z</time></trkpt><trkpt lat="52.0088514592" lon="-2.2197675984"><ele>29.94</ele><time>2012-02-01T11:47:03Z</time></trkpt><trkpt lat="52.0087432489" lon="-2.2197445482"><ele>29.46</ele><time>2012-02-01T11:47:12Z</time></trkpt><trkpt lat="52.0086218789" lon="-2.2197303828"><ele>30.42</ele><time>2012-02-01T11:47:24Z</time></trkpt><trkpt lat="52.0084918756" lon="-2.2197002079"><ele>30.42</ele><time>2012-02-01T11:47:37Z</time></trkpt><trkpt lat="52.0083420910" lon="-2.2196375951"><ele>30.90</ele><time>2012-02-01T11:47:51Z</time></trkpt><trkpt lat="52.0081834216" lon="-2.2196044866"><ele>30.90</ele><time>2012-02-01T11:48:05Z</time></trkpt><trkpt lat="52.0080367383" lon="-2.2195511777"><ele>30.42</ele><time>2012-02-01T11:48:18Z</time></trkpt><trkpt lat="52.0079224091" lon="-2.2195222601"><ele>30.90</ele><time>2012-02-01T11:48:29Z</time></trkpt><trkpt lat="52.0077952556" lon="-2.2194914985"><ele>31.38</ele><time>2012-02-01T11:48:41Z</time></trkpt><trkpt lat="52.0076511707" lon="-2.2194339987"><ele>31.38</ele><time>2012-02-01T11:48:53Z</time></trkpt><trkpt lat="52.0076126978" lon="-2.2194219287"><ele>31.38</ele><time>2012-02-01T11:48:56Z</time></trkpt><trkpt lat="52.0075738896" lon="-2.2194281314"><ele>30.90</ele><time>2012-02-01T11:49:00Z</time></trkpt><trkpt lat="52.0075065829" lon="-2.2194091883"><ele>31.38</ele><time>2012-02-01T11:49:07Z</time></trkpt><trkpt lat="52.0073803514" lon="-2.2193875629"><ele>31.38</ele><time>2012-02-01T11:49:18Z</time></trkpt><trkpt lat="52.0073467400" lon="-2.2193815280"><ele>31.38</ele><time>2012-02-01T11:49:21Z</time></trkpt><trkpt lat="52.0072076004" lon="-2.2193235252"><ele>31.86</ele><time>2012-02-01T11:49:34Z</time></trkpt><trkpt lat="52.0071987156" lon="-2.2193171550"><ele>31.38</ele><time>2012-02-01T11:49:35Z</time></trkpt><trkpt lat="52.0071666129" lon="-2.2192998882"><ele>32.82</ele><time>2012-02-01T11:49:38Z</time></trkpt><trkpt lat="52.0070074406" lon="-2.2192710545"><ele>32.34</ele><time>2012-02-01T11:49:53Z</time></trkpt><trkpt lat="52.0069296565" lon="-2.2192541230"><ele>33.30</ele><time>2012-02-01T11:50:00Z</time></trkpt><trkpt lat="52.0068977214" lon="-2.2192354314"><ele>33.30</ele><time>2012-02-01T11:50:03Z</time></trkpt><trkpt lat="52.0068434067" lon="-2.2192068491"><ele>32.82</ele><time>2012-02-01T11:50:08Z</time></trkpt><trkpt lat="52.0067213662" lon="-2.2191563062"><ele>33.78</ele><time>2012-02-01T11:50:19Z</time></trkpt><trkpt lat="52.0066006668" lon="-2.2190993931"><ele>34.74</ele><time>2012-02-01T11:50:31Z</time></trkpt><trkpt lat="52.0065815561" lon="-2.2191059310"><ele>34.74</ele><time>2012-02-01T11:50:33Z</time></trkpt><trkpt lat="52.0065167639" lon="-2.2190650273"><ele>34.74</ele><time>2012-02-01T11:50:39Z</time></trkpt><trkpt lat="52.0063640457" lon="-2.2189819627"><ele>35.23</ele><time>2012-02-01T11:50:53Z</time></trkpt><trkpt lat="52.0062265825" lon="-2.2189428192"><ele>35.71</ele><time>2012-02-01T11:51:06Z</time></trkpt><trkpt lat="52.0061270893" lon="-2.2189130634"><ele>35.71</ele><time>2012-02-01T11:51:16Z</time></trkpt><trkpt lat="52.0060775522" lon="-2.2188997362"><ele>36.67</ele><time>2012-02-01T11:51:20Z</time></trkpt><trkpt lat="52.0059713535" lon="-2.2188531328"><ele>36.19</ele><time>2012-02-01T11:51:30Z</time></trkpt><trkpt lat="52.0058076549" lon="-2.2188402247"><ele>36.67</ele><time>2012-02-01T11:51:45Z</time></trkpt><trkpt lat="52.0057100058" lon="-2.2188358661"><ele>35.71</ele><time>2012-02-01T11:51:55Z</time></trkpt><trkpt lat="52.0056121890" lon="-2.2187832277"><ele>36.19</ele><time>2012-02-01T11:52:04Z</time></trkpt><trkpt lat="52.0055684354" lon="-2.2187749296"><ele>35.71</ele><time>2012-02-01T11:52:08Z</time></trkpt><trkpt lat="52.0054391026" lon="-2.2186955530"><ele>37.15</ele><time>2012-02-01T11:52:20Z</time></trkpt><trkpt lat="52.0053127035" lon="-2.2185826488"><ele>37.15</ele><time>2012-02-01T11:52:33Z</time></trkpt><trkpt lat="52.0052088518" lon="-2.2185083013"><ele>37.63</ele><time>2012-02-01T11:52:44Z</time></trkpt><trkpt lat="52.0051701274" lon="-2.2185253166"><ele>38.11</ele><time>2012-02-01T11:52:56Z</time></trkpt><trkpt lat="52.0051639248" lon="-2.2185071278"><ele>38.11</ele><time>2012-02-01T11:52:59Z</time></trkpt><trkpt lat="52.0051433891" lon="-2.2184926271"><ele>37.63</ele><time>2012-02-01T11:53:01Z</time></trkpt><trkpt lat="52.0051092748" lon="-2.2184740193"><ele>38.11</ele><time>2012-02-01T11:53:05Z</time></trkpt><trkpt lat="52.0050732326" lon="-2.2184485383"><ele>38.11</ele><time>2012-02-01T11:53:09Z</time></trkpt><trkpt lat="52.0049581490" lon="-2.2183425911"><ele>39.55</ele><time>2012-02-01T11:53:21Z</time></trkpt><trkpt lat="52.0048310794" lon="-2.2182498872"><ele>39.55</ele><time>2012-02-01T11:53:34Z</time></trkpt><trkpt lat="52.0047621801" lon="-2.2182132583"><ele>40.99</ele><time>2012-02-01T11:53:42Z</time></trkpt><trkpt lat="52.0047113858" lon="-2.2182161082"><ele>40.03</ele><time>2012-02-01T11:53:51Z</time></trkpt><trkpt lat="52.0046741702" lon="-2.2181917168"><ele>40.51</ele><time>2012-02-01T11:53:55Z</time></trkpt><trkpt lat="52.0046449173" lon="-2.2181892861"><ele>40.99</ele><time>2012-02-01T11:53:59Z</time></trkpt><trkpt lat="52.0045783650" lon="-2.2182407510"><ele>41.47</ele><time>2012-02-01T11:54:13Z</time></trkpt><trkpt lat="52.0045681391" lon="-2.2182428464"><ele>41.95</ele><time>2012-02-01T11:54:31Z</time></trkpt><trkpt lat="52.0045635290" lon="-2.2182425112"><ele>42.44</ele><time>2012-02-01T11:54:49Z</time></trkpt><trkpt lat="52.0045489445" lon="-2.2182389908"><ele>42.44</ele><time>2012-02-01T11:54:56Z</time></trkpt><trkpt lat="52.0045207813" lon="-2.2182819061"><ele>42.44</ele><time>2012-02-01T11:55:11Z</time></trkpt><trkpt lat="52.0044778660" lon="-2.2183705866"><ele>42.44</ele><time>2012-02-01T11:55:27Z</time></trkpt><trkpt lat="52.0044443384" lon="-2.2184958961"><ele>42.44</ele><time>2012-02-01T11:55:35Z</time></trkpt><trkpt lat="52.0043949690" lon="-2.2186406516"><ele>42.44</ele><time>2012-02-01T11:55:45Z</time></trkpt><trkpt lat="52.0043639559" lon="-2.2187362053"><ele>42.44</ele><time>2012-02-01T11:55:52Z</time></trkpt><trkpt lat="52.0043055341" lon="-2.2189303301"><ele>42.92</ele><time>2012-02-01T11:56:05Z</time></trkpt><trkpt lat="52.0042483695" lon="-2.2191127203"><ele>43.40</ele><time>2012-02-01T11:56:18Z</time></trkpt><trkpt lat="52.0042349584" lon="-2.2191694658"><ele>42.92</ele><time>2012-02-01T11:56:22Z</time></trkpt><trkpt lat="52.0042009279" lon="-2.2192576434"><ele>42.92</ele><time>2012-02-01T11:56:29Z</time></trkpt><trkpt lat="52.0041804761" lon="-2.2193391155"><ele>42.92</ele><time>2012-02-01T11:56:34Z</time></trkpt><trkpt lat="52.0041687414" lon="-2.2193928435"><ele>42.92</ele><time>2012-02-01T11:56:38Z</time></trkpt><trkpt lat="52.0040673204" lon="-2.2195837833"><ele>42.44</ele><time>2012-02-01T11:56:52Z</time></trkpt><trkpt lat="52.0039988402" lon="-2.2197453864"><ele>42.44</ele><time>2012-02-01T11:57:04Z</time></trkpt><trkpt lat="52.0039306954" lon="-2.2198913991"><ele>42.44</ele><time>2012-02-01T11:57:15Z</time></trkpt><trkpt lat="52.0038798172" lon="-2.2200436983"><ele>42.44</ele><time>2012-02-01T11:57:28Z</time></trkpt><trkpt lat="52.0038809069" lon="-2.2200747952"><ele>41.95</ele><time>2012-02-01T11:57:43Z</time></trkpt><trkpt lat="52.0038841758" lon="-2.2200770583"><ele>41.95</ele><time>2012-02-01T11:58:01Z</time></trkpt><trkpt lat="52.0038864389" lon="-2.2200808302"><ele>41.95</ele><time>2012-02-01T11:58:26Z</time></trkpt><trkpt lat="52.0039042924" lon="-2.2201089095"><ele>41.95</ele><time>2012-02-01T11:58:43Z</time></trkpt><trkpt lat="52.0039151888" lon="-2.2201499809"><ele>41.95</ele><time>2012-02-01T11:58:48Z</time></trkpt><trkpt lat="52.0038960781" lon="-2.2202465404"><ele>40.99</ele><time>2012-02-01T11:58:53Z</time></trkpt><trkpt lat="52.0038214792" lon="-2.2204059642"><ele>40.51</ele><time>2012-02-01T11:59:06Z</time></trkpt><trkpt lat="52.0037415158" lon="-2.2206128296"><ele>39.55</ele><time>2012-02-01T11:59:20Z</time></trkpt><trkpt lat="52.0036752149" lon="-2.2207703255"><ele>38.59</ele><time>2012-02-01T11:59:33Z</time></trkpt><trkpt lat="52.0036095846" lon="-2.2209548112"><ele>38.59</ele><time>2012-02-01T11:59:45Z</time></trkpt><trkpt lat="52.0035955869" lon="-2.2209968884"><ele>38.59</ele><time>2012-02-01T12:00:01Z</time></trkpt><trkpt lat="52.0035628974" lon="-2.2210832220"><ele>38.11</ele><time>2012-02-01T12:00:16Z</time></trkpt><trkpt lat="52.0035354048" lon="-2.2211608384"><ele>38.59</ele><time>2012-02-01T12:00:21Z</time></trkpt><trkpt lat="52.0034561120" lon="-2.2213873174"><ele>37.63</ele><time>2012-02-01T12:00:35Z</time></trkpt><trkpt lat="52.0033857040" lon="-2.2215564642"><ele>36.67</ele><time>2012-02-01T12:00:47Z</time></trkpt><trkpt lat="52.0033554453" lon="-2.2216600645"><ele>37.15</ele><time>2012-02-01T12:00:53Z</time></trkpt><trkpt lat="52.0033179782" lon="-2.2217432968"><ele>37.15</ele><time>2012-02-01T12:01:07Z</time></trkpt><trkpt lat="52.0032247715" lon="-2.2219748888"><ele>37.15</ele><time>2012-02-01T12:01:20Z</time></trkpt><trkpt lat="52.0031881426" lon="-2.2220915649"><ele>36.67</ele><time>2012-02-01T12:01:27Z</time></trkpt><trkpt lat="52.0031298045" lon="-2.2221888788"><ele>36.67</ele><time>2012-02-01T12:01:42Z</time></trkpt><trkpt lat="52.0031199139" lon="-2.2221988533"><ele>37.15</ele><time>2012-02-01T12:01:49Z</time></trkpt><trkpt lat="52.0030833688" lon="-2.2223099973"><ele>36.67</ele><time>2012-02-01T12:01:56Z</time></trkpt><trkpt lat="52.0030778367" lon="-2.2223598696"><ele>37.15</ele><time>2012-02-01T12:01:59Z</time></trkpt><trkpt lat="52.0030728914" lon="-2.2224023659"><ele>37.15</ele><time>2012-02-01T12:02:01Z</time></trkpt><trkpt lat="52.0030565467" lon="-2.2224332113"><ele>37.15</ele><time>2012-02-01T12:02:03Z</time></trkpt><trkpt lat="52.0030277129" lon="-2.2225381527"><ele>37.63</ele><time>2012-02-01T12:02:09Z</time></trkpt><trkpt lat="52.0030127093" lon="-2.2225685790"><ele>38.11</ele><time>2012-02-01T12:02:11Z</time></trkpt><trkpt lat="52.0029415470" lon="-2.2227376420"><ele>37.63</ele><time>2012-02-01T12:02:22Z</time></trkpt><trkpt lat="52.0028719772" lon="-2.2229295876"><ele>38.59</ele><time>2012-02-01T12:02:36Z</time></trkpt><trkpt lat="52.0028537046" lon="-2.2229758557"><ele>39.07</ele><time>2012-02-01T12:02:40Z</time></trkpt><trkpt lat="52.0028267987" lon="-2.2230645362"><ele>39.07</ele><time>2012-02-01T12:02:46Z</time></trkpt><trkpt lat="52.0027831290" lon="-2.2231788654"><ele>40.51</ele><time>2012-02-01T12:02:54Z</time></trkpt><trkpt lat="52.0026876591" lon="-2.2234024946"><ele>41.47</ele><time>2012-02-01T12:03:07Z</time></trkpt><trkpt lat="52.0026094560" lon="-2.2235930990"><ele>42.44</ele><time>2012-02-01T12:03:20Z</time></trkpt><trkpt lat="52.0025851484" lon="-2.2236772534"><ele>42.44</ele><time>2012-02-01T12:03:27Z</time></trkpt><trkpt lat="52.0025781076" lon="-2.2236990463"><ele>43.40</ele><time>2012-02-01T12:03:29Z</time></trkpt><trkpt lat="52.0025538839" lon="-2.2237276286"><ele>42.92</ele><time>2012-02-01T12:03:32Z</time></trkpt><trkpt lat="52.0025088731" lon="-2.2238298878"><ele>43.88</ele><time>2012-02-01T12:03:39Z</time></trkpt><trkpt lat="52.0024872478" lon="-2.2238711268"><ele>43.88</ele><time>2012-02-01T12:03:42Z</time></trkpt><trkpt lat="52.0024495292" lon="-2.2239371762"><ele>44.36</ele><time>2012-02-01T12:03:48Z</time></trkpt><trkpt lat="52.0024149958" lon="-2.2239954304"><ele>44.84</ele><time>2012-02-01T12:03:56Z</time></trkpt><trkpt lat="52.0023932029" lon="-2.2240422014"><ele>44.36</ele><time>2012-02-01T12:04:00Z</time></trkpt><trkpt lat="52.0022702403" lon="-2.2242079116"><ele>44.84</ele><time>2012-02-01T12:04:16Z</time></trkpt><trkpt lat="52.0022358745" lon="-2.2242555209"><ele>45.32</ele><time>2012-02-01T12:04:27Z</time></trkpt><trkpt lat="52.0022274926" lon="-2.2242714465"><ele>45.80</ele><time>2012-02-01T12:04:41Z</time></trkpt><trkpt lat="52.0022475254" lon="-2.2243115120"><ele>45.80</ele><time>2012-02-01T12:04:49Z</time></trkpt><trkpt lat="52.0023376308" lon="-2.2244688403"><ele>45.80</ele><time>2012-02-01T12:05:02Z</time></trkpt><trkpt lat="52.0024176780" lon="-2.2246219777"><ele>46.28</ele><time>2012-02-01T12:05:14Z</time></trkpt><trkpt lat="52.0024227910" lon="-2.2246299405"><ele>46.28</ele><time>2012-02-01T12:05:15Z</time></trkpt><trkpt lat="52.0024393871" lon="-2.2246565111"><ele>46.28</ele><time>2012-02-01T12:05:27Z</time></trkpt><trkpt lat="52.0024394710" lon="-2.2246624622"><ele>46.28</ele><time>2012-02-01T12:05:45Z</time></trkpt><trkpt lat="52.0024700649" lon="-2.2246908769"><ele>46.28</ele><time>2012-02-01T12:06:04Z</time></trkpt><trkpt lat="52.0025189314" lon="-2.2247332055"><ele>45.80</ele><time>2012-02-01T12:06:21Z</time></trkpt><trkpt lat="52.0026039239" lon="-2.2248580121"><ele>45.80</ele><time>2012-02-01T12:06:33Z</time></trkpt><trkpt lat="52.0026988909" lon="-2.2249202896"><ele>45.80</ele><time>2012-02-01T12:06:44Z</time></trkpt><trkpt lat="52.0027192589" lon="-2.2249177750"><ele>44.84</ele><time>2012-02-01T12:06:57Z</time></trkpt><trkpt lat="52.0027241204" lon="-2.2249280009"><ele>44.84</ele><time>2012-02-01T12:07:10Z</time></trkpt><trkpt lat="52.0027930196" lon="-2.2249854170"><ele>45.32</ele><time>2012-02-01T12:07:18Z</time></trkpt><trkpt lat="52.0028133877" lon="-2.2249993309"><ele>45.32</ele><time>2012-02-01T12:07:20Z</time></trkpt><trkpt lat="52.0028427243" lon="-2.2250821441"><ele>44.84</ele><time>2012-02-01T12:07:25Z</time></trkpt><trkpt lat="52.0029144734" lon="-2.2252029274"><ele>44.36</ele><time>2012-02-01T12:07:32Z</time></trkpt><trkpt lat="52.0029757451" lon="-2.2252721619"><ele>43.88</ele><time>2012-02-01T12:07:38Z</time></trkpt><trkpt lat="52.0030003879" lon="-2.2253449168"><ele>43.88</ele><time>2012-02-01T12:07:42Z</time></trkpt><trkpt lat="52.0031137113" lon="-2.2255366948"><ele>43.40</ele><time>2012-02-01T12:07:56Z</time></trkpt><trkpt lat="52.0031368453" lon="-2.2255717311"><ele>43.40</ele><time>2012-02-01T12:07:59Z</time></trkpt><trkpt lat="52.0031928364" lon="-2.2256271355"><ele>43.88</ele><time>2012-02-01T12:08:06Z</time></trkpt><trkpt lat="52.0032209996" lon="-2.2256594896"><ele>43.40</ele><time>2012-02-01T12:08:09Z</time></trkpt><trkpt lat="52.0032510906" lon="-2.2257104516"><ele>43.40</ele><time>2012-02-01T12:08:29Z</time></trkpt><trkpt lat="52.0032510906" lon="-2.2257104516"><ele>43.40</ele><time>2012-02-01T12:08:31Z</time></trkpt></trkseg></trk></gpx>